createdAt,value
2019-04-06T00:00:47.316Z,99.90
2019-04-06T00:03:15.745Z,99.90
2019-04-06T00:05:44.424Z,99.90
2019-04-06T00:08:12.921Z,99.90
2019-04-06T00:13:36.792Z,99.90
2019-04-06T00:16:04.628Z,99.90
2019-04-06T00:18:33.383Z,99.90
2019-04-06T00:21:04.438Z,99.90
2019-04-06T00:23:32.421Z,99.90
2019-04-06T00:26:00.734Z,99.90
2019-04-06T00:28:28.630Z,99.90
2019-04-06T00:31:09.098Z,99.90
2019-04-06T00:33:37.016Z,99.90
2019-04-06T00:36:05.858Z,99.90
2019-04-06T00:38:33.922Z,99.90
2019-04-06T00:41:05.929Z,99.90
2019-04-06T00:43:33.900Z,99.90
2019-04-06T00:46:02.021Z,99.90
2019-04-06T00:48:30.055Z,99.90
2019-04-06T00:50:58.514Z,99.90
2019-04-06T00:53:26.206Z,99.90
2019-04-06T00:55:55.790Z,99.90
2019-04-06T00:58:25.208Z,99.90
2019-04-06T01:00:53.288Z,99.90
2019-04-06T01:03:21.238Z,99.90
2019-04-06T01:05:49.426Z,99.90
2019-04-06T01:08:17.479Z,99.90
2019-04-06T01:10:45.126Z,99.90
2019-04-06T01:13:22.681Z,99.90
2019-04-06T01:15:51.218Z,99.90
2019-04-06T01:18:19.724Z,99.90
2019-04-06T01:20:47.625Z,99.90
2019-04-06T01:23:15.425Z,99.90
2019-04-06T01:25:48.124Z,99.90
2019-04-06T01:28:16.027Z,99.90
2019-04-06T01:30:43.565Z,99.90
2019-04-06T01:33:11.379Z,99.90
2019-04-06T01:35:39.803Z,99.90
2019-04-06T01:38:07.510Z,99.90
2019-04-06T01:40:35.277Z,99.90
2019-04-06T01:43:06.338Z,99.90
2019-04-06T01:45:34.638Z,99.90
2019-04-06T01:48:05.757Z,99.90
2019-04-06T01:50:33.735Z,99.90
2019-04-06T01:53:02.208Z,99.90
2019-04-06T01:55:42.061Z,99.90
2019-04-06T01:58:10.390Z,99.90
2019-04-06T02:00:46.798Z,99.90
2019-04-06T02:03:14.567Z,99.90
2019-04-06T02:05:42.771Z,99.90
2019-04-06T02:08:11.026Z,99.90
2019-04-06T02:10:39.114Z,99.90
2019-04-06T02:13:07.336Z,99.90
2019-04-06T02:15:35.631Z,99.90
2019-04-06T02:18:05.890Z,99.90
2019-04-06T02:20:33.421Z,99.90
2019-04-06T02:23:01.347Z,99.90
2019-04-06T02:25:29.509Z,99.90
2019-04-06T02:27:57.507Z,99.90
2019-04-06T02:30:29.922Z,99.90
2019-04-06T02:33:17.169Z,99.90
2019-04-06T02:35:50.617Z,99.90
2019-04-06T02:38:33.686Z,99.90
2019-04-06T02:41:21.285Z,99.90
2019-04-06T02:43:49.109Z,99.90
2019-04-06T02:46:17.491Z,99.90
2019-04-06T02:48:45.548Z,99.90
2019-04-06T02:51:13.405Z,99.90
2019-04-06T02:53:41.053Z,99.90
2019-04-06T02:56:08.693Z,99.90
2019-04-06T02:58:39.300Z,99.90
2019-04-06T03:01:06.934Z,99.90
2019-04-06T03:03:34.840Z,99.90
2019-04-06T03:06:02.810Z,99.90
2019-04-06T03:08:35.113Z,99.90
2019-04-06T03:11:03.402Z,99.90
2019-04-06T03:13:31.619Z,99.90
2019-04-06T03:15:59.932Z,99.90
2019-04-06T03:18:38.774Z,99.90
2019-04-06T03:21:06.794Z,99.90
2019-04-06T03:23:49.022Z,99.90
2019-04-06T03:26:04.058Z,99.90
2019-04-06T03:28:31.736Z,99.90
2019-04-06T03:30:59.872Z,99.90
2019-04-06T03:33:29.113Z,99.90
2019-04-06T03:35:57.019Z,99.90
2019-04-06T03:38:24.919Z,99.90
2019-04-06T03:40:56.853Z,99.90
2019-04-06T03:43:24.518Z,99.90
2019-04-06T03:45:55.861Z,99.90
2019-04-06T03:48:24.507Z,99.90
2019-04-06T03:50:52.847Z,99.90
2019-04-06T03:53:20.862Z,99.90
2019-04-06T03:55:48.389Z,99.90
2019-04-06T03:58:16.325Z,99.90
2019-04-06T04:00:44.559Z,99.90
2019-04-06T04:03:12.967Z,99.90
2019-04-06T04:05:40.877Z,99.90
2019-04-06T04:08:08.917Z,99.90
2019-04-06T04:10:38.007Z,99.90
2019-04-06T04:13:06.596Z,99.90
2019-04-06T04:15:34.245Z,99.90
2019-04-06T04:18:02.666Z,99.90
2019-04-06T04:20:33.752Z,99.90
2019-04-06T04:23:02.052Z,99.90
2019-04-06T04:25:29.650Z,99.90
2019-04-06T04:27:57.573Z,99.90
2019-04-06T04:30:43.882Z,99.90
2019-04-06T04:33:12.174Z,99.90
2019-04-06T04:35:39.716Z,99.90
2019-04-06T04:38:07.739Z,99.90
2019-04-06T04:40:35.433Z,99.90
2019-04-06T04:43:03.534Z,99.90
2019-04-06T04:45:31.937Z,99.90
2019-04-06T04:47:59.493Z,99.90
2019-04-06T04:50:28.032Z,99.90
2019-04-06T04:52:59.023Z,99.90
2019-04-06T04:55:27.045Z,99.90
2019-04-06T04:57:55.127Z,99.90
2019-04-06T05:00:23.530Z,99.90
2019-04-06T05:02:51.675Z,99.90
2019-04-06T05:05:21.555Z,99.90
2019-04-06T05:07:49.498Z,99.90
2019-04-06T05:10:17.540Z,99.90
2019-04-06T05:12:45.887Z,99.90
2019-04-06T05:15:21.334Z,99.90
2019-04-06T05:17:50.811Z,99.90
2019-04-06T05:20:18.756Z,99.90
2019-04-06T05:22:46.372Z,99.90
2019-04-06T05:25:14.303Z,99.90
2019-04-06T05:27:51.235Z,99.90
2019-04-06T05:30:12.140Z,99.90
2019-04-06T05:32:40.104Z,99.90
2019-04-06T05:35:08.547Z,99.90
2019-04-06T05:37:38.055Z,99.90
2019-04-06T05:40:06.528Z,99.90
2019-04-06T05:42:34.476Z,99.90
2019-04-06T05:45:02.913Z,99.90
2019-04-06T05:47:31.274Z,99.90
2019-04-06T05:49:59.647Z,99.90
2019-04-06T05:52:27.594Z,99.90
2019-04-06T05:54:55.571Z,99.90
2019-04-06T05:57:23.582Z,99.90
2019-04-06T05:59:51.739Z,99.90
2019-04-06T06:02:19.772Z,99.90
2019-04-06T06:04:47.412Z,99.90
2019-04-06T06:07:14.953Z,99.90
2019-04-06T06:09:43.586Z,99.90
2019-04-06T06:12:12.805Z,99.90
2019-04-06T06:14:41.210Z,99.90
2019-04-06T06:17:09.030Z,99.90
2019-04-06T06:19:40.440Z,99.90
2019-04-06T06:22:08.640Z,99.90
2019-04-06T06:24:36.995Z,99.90
2019-04-06T06:27:05.136Z,99.90
2019-04-06T06:30:00.146Z,99.90
2019-04-06T06:32:30.844Z,99.90
2019-04-06T06:35:01.792Z,99.90
2019-04-06T06:44:10.183Z,99.90
2019-04-06T06:46:39.154Z,99.90
2019-04-06T06:49:07.500Z,99.90
2019-04-06T06:51:36.217Z,99.90
2019-04-06T06:54:04.307Z,99.90
2019-04-06T06:56:37.852Z,99.90
2019-04-06T06:59:05.953Z,99.90
2019-04-06T07:01:34.493Z,99.90
2019-04-06T07:04:04.192Z,99.90
2019-04-06T07:06:32.231Z,99.90
2019-04-06T07:09:03.165Z,99.90
2019-04-06T07:11:32.611Z,99.90
2019-04-06T07:14:06.100Z,99.90
2019-04-06T07:16:37.479Z,99.90
2019-04-06T07:19:17.017Z,99.90
2019-04-06T07:22:00.165Z,99.90
2019-04-06T07:24:36.899Z,99.90
2019-04-06T07:27:13.346Z,99.90
2019-04-06T07:29:53.865Z,99.90
2019-04-06T07:35:54.772Z,99.90
2019-04-06T07:44:28.769Z,99.90
2019-04-06T07:47:34.035Z,99.90
2019-04-06T07:50:26.977Z,99.90
2019-04-06T07:56:23.222Z,99.90
2019-04-06T08:05:02.077Z,99.90
2019-04-06T08:07:32.660Z,99.90
2019-04-06T08:10:04.442Z,99.90
2019-04-06T08:23:23.432Z,99.90
2019-04-06T08:27:08.554Z,99.90
2019-04-06T10:12:38.276Z,99.90
2019-04-06T10:15:25.519Z,99.90
2019-04-06T10:18:32.741Z,99.90
2019-04-06T10:21:20.131Z,99.90
2019-04-06T10:24:14.905Z,99.90
2019-04-06T10:27:12.062Z,99.90
2019-04-06T10:30:10.766Z,99.90
2019-04-06T10:32:59.520Z,99.90
2019-04-06T10:35:57.702Z,99.90
2019-04-06T10:39:09.979Z,99.90
2019-04-06T10:42:03.623Z,99.90
2019-04-06T10:45:03.809Z,99.90
2019-04-06T10:47:59.387Z,99.90
2019-04-06T10:51:07.392Z,99.90
2019-04-06T11:06:35.075Z,99.90
2019-04-06T11:09:43.342Z,99.90
2019-04-06T11:12:41.038Z,99.90
2019-04-06T11:15:43.632Z,99.90
2019-04-06T11:18:50.321Z,99.90
2019-04-06T11:21:54.876Z,99.90
2019-04-06T11:25:08.235Z,99.30
2019-04-06T11:28:08.077Z,99.90
2019-04-06T11:31:13.683Z,99.90
2019-04-06T11:40:59.370Z,99.90
2019-04-06T11:44:01.151Z,99.80
2019-04-06T11:47:49.622Z,99.90
2019-04-06T11:50:41.376Z,99.90
2019-04-06T11:54:00.761Z,98.40
2019-04-06T11:57:00.809Z,97.10
2019-04-06T12:00:24.503Z,98.80
2019-04-06T12:03:28.042Z,97.10
2019-04-06T12:06:24.648Z,94.80
2019-04-06T12:09:23.972Z,95.00
2019-04-06T12:12:25.937Z,94.20
2019-04-06T12:15:25.058Z,92.40
2019-04-06T12:18:29.534Z,93.00
2019-04-06T12:21:29.588Z,94.80
2019-04-06T12:25:02.426Z,94.30
2019-04-06T12:28:15.521Z,95.10
2019-04-06T12:31:17.600Z,97.10
2019-04-06T12:34:14.505Z,97.50
2019-04-06T12:37:20.042Z,96.90
2019-04-06T12:40:23.093Z,96.50
2019-04-06T12:43:32.133Z,96.70
2019-04-06T12:46:31.559Z,95.00
2019-04-06T12:49:23.074Z,95.70
2019-04-06T12:52:25.672Z,98.90
2019-04-06T12:55:33.748Z,98.20
2019-04-06T12:58:34.764Z,97.90
2019-04-06T13:01:55.225Z,96.80
2019-04-06T13:05:11.765Z,94.80
2019-04-06T13:08:14.435Z,93.50
2019-04-06T13:11:19.013Z,95.90
2019-04-06T13:14:21.999Z,94.90
2019-04-06T13:21:02.572Z,94.80
2019-04-06T13:24:06.436Z,93.20
2019-04-06T13:27:01.147Z,92.40
2019-04-06T13:29:57.184Z,94.10
2019-04-06T13:32:57.290Z,91.90
2019-04-06T13:35:52.198Z,92.70
2019-04-06T13:38:59.708Z,91.80
2019-04-06T13:45:25.686Z,95.20
2019-04-06T13:55:38.572Z,94.60
2019-04-06T14:05:33.872Z,95.30
2019-04-06T14:08:58.700Z,94.30
2019-04-06T14:22:02.555Z,94.30
2019-04-06T14:35:36.943Z,93.20
2019-04-06T14:38:51.971Z,93.70
2019-04-06T14:42:01.790Z,91.90
2019-04-06T14:45:03.602Z,92.90
2019-04-06T15:15:52.641Z,92.90
2019-04-06T15:19:04.886Z,92.60
2019-04-06T15:22:14.838Z,91.90
2019-04-06T15:25:05.914Z,92.60
2019-04-06T15:27:54.153Z,93.00
2019-04-06T15:30:58.880Z,93.30
2019-04-06T15:33:56.841Z,93.10
2019-04-06T15:36:43.988Z,92.70
2019-04-06T15:40:00.890Z,92.80
2019-04-06T15:42:40.376Z,93.20
2019-04-06T15:45:27.129Z,92.30
2019-04-06T15:48:18.639Z,93.20
2019-04-06T15:51:07.444Z,93.90
2019-04-06T15:53:57.010Z,92.50
2019-04-06T15:56:46.977Z,92.90
2019-04-06T16:05:31.417Z,92.50
2019-04-06T16:08:24.326Z,92.40
2019-04-06T16:11:12.215Z,92.30
2019-04-06T16:14:25.631Z,92.10
2019-04-06T16:17:20.205Z,91.80
2019-04-06T16:20:05.796Z,92.10
2019-04-06T16:23:13.617Z,91.70
2019-04-06T16:26:01.563Z,92.00
2019-04-06T16:28:56.792Z,93.20
2019-04-06T16:32:11.507Z,93.50
2019-04-06T16:34:46.347Z,92.30
2019-04-06T16:37:48.909Z,92.30
2019-04-06T16:40:32.672Z,92.40
2019-04-06T16:43:38.396Z,92.00
2019-04-06T16:46:48.097Z,92.20
2019-04-06T16:49:45.853Z,92.50
2019-04-06T16:52:36.802Z,92.60
2019-04-06T16:55:41.062Z,92.10
2019-04-06T16:58:40.460Z,92.40
2019-04-06T17:01:25.545Z,92.10
2019-04-06T17:04:19.524Z,92.20
2019-04-06T17:07:12.758Z,92.50
2019-04-06T17:13:51.573Z,93.00
2019-04-06T17:16:44.671Z,93.30
2019-04-06T17:19:48.666Z,94.10
2019-04-06T17:22:45.972Z,96.80
2019-04-06T17:25:40.957Z,99.00
2019-04-06T17:36:07.997Z,99.90
2019-04-06T17:38:55.601Z,99.90
2019-04-06T17:41:35.678Z,99.90
2019-04-06T17:44:35.919Z,99.90
2019-04-06T17:47:40.009Z,99.90
2019-04-06T17:50:52.025Z,99.90
2019-04-06T17:53:42.560Z,99.90
2019-04-06T17:56:46.015Z,99.90
2019-04-06T17:59:33.458Z,99.90
2019-04-06T18:02:12.258Z,99.90
2019-04-06T18:04:51.053Z,99.90
2019-04-06T18:07:29.809Z,99.90
2019-04-06T18:10:07.127Z,99.80
2019-04-06T18:12:54.295Z,99.90
2019-04-06T18:15:25.005Z,99.90
2019-04-06T18:17:53.852Z,99.90
2019-04-06T18:20:22.548Z,99.90
2019-04-06T18:22:53.836Z,99.90
2019-04-06T18:25:24.013Z,99.90
2019-04-06T18:27:52.627Z,99.90
2019-04-06T18:30:23.690Z,99.90
2019-04-06T18:33:01.753Z,99.90
2019-04-06T18:35:29.177Z,99.90
2019-04-06T18:38:13.600Z,99.90
2019-04-06T18:40:44.067Z,99.90
2019-04-06T18:43:18.495Z,99.80
2019-04-06T18:45:48.981Z,96.60
2019-04-06T18:48:17.331Z,90.00
2019-04-06T18:50:48.561Z,91.70
2019-04-06T18:53:19.848Z,90.90
2019-04-06T18:55:51.112Z,92.60
2019-04-06T18:58:35.510Z,90.10
2019-04-06T19:01:06.844Z,91.10
2019-04-06T19:03:37.806Z,92.00
2019-04-06T19:06:15.190Z,93.30
2019-04-06T19:08:43.722Z,93.40
2019-04-06T19:11:38.116Z,93.50
2019-04-06T19:14:09.928Z,94.00
2019-04-06T19:16:38.428Z,94.60
2019-04-06T19:19:07.820Z,95.00
2019-04-06T19:21:38.872Z,95.20
2019-04-06T19:24:10.049Z,95.90
2019-04-06T19:26:43.432Z,95.80
2019-04-06T19:29:15.055Z,95.70
2019-04-06T19:31:45.944Z,96.20
2019-04-06T19:34:15.769Z,96.90
2019-04-06T19:36:49.071Z,97.80
2019-04-06T19:39:20.257Z,99.20
2019-04-06T19:41:50.467Z,99.80
2019-04-06T19:44:19.879Z,99.90
2019-04-06T19:46:49.647Z,99.90
2019-04-06T19:49:20.535Z,99.90
2019-04-06T19:51:54.411Z,99.90
2019-04-06T19:54:34.413Z,99.90
2019-04-06T19:57:04.274Z,99.90
2019-04-06T19:59:33.319Z,99.90
2019-04-06T20:02:03.551Z,99.90
2019-04-06T20:04:36.395Z,99.90
2019-04-06T20:07:08.005Z,99.90
2019-04-06T20:09:46.391Z,99.90
2019-04-06T20:12:18.045Z,99.90
2019-04-06T20:14:47.161Z,99.90
2019-04-06T20:17:30.044Z,99.90
2019-04-06T20:19:55.741Z,99.90
2019-04-06T20:22:26.599Z,99.90
2019-04-06T20:25:00.142Z,99.90
2019-04-06T20:27:37.425Z,99.90
2019-04-06T20:30:11.302Z,99.90
2019-04-06T20:32:44.733Z,99.90
2019-04-06T20:35:16.695Z,99.90
2019-04-06T20:37:45.663Z,99.90
2019-04-06T20:40:14.747Z,99.90
2019-04-06T20:42:43.821Z,99.90
2019-04-06T20:45:13.079Z,99.90
2019-04-06T20:47:42.118Z,99.90
2019-04-06T20:50:11.198Z,99.90
2019-04-06T20:52:46.001Z,99.90
2019-04-06T20:55:12.413Z,99.90
2019-04-06T20:57:45.230Z,99.90
2019-04-06T21:00:14.143Z,99.90
2019-04-06T21:02:44.085Z,99.90
2019-04-06T21:05:13.756Z,99.90
2019-04-06T21:07:42.044Z,99.90
2019-04-06T21:10:15.428Z,99.90
2019-04-06T21:12:45.392Z,99.90
2019-04-06T21:15:20.038Z,99.90
2019-04-06T21:17:48.196Z,99.90
2019-04-06T21:20:18.769Z,99.90
2019-04-06T21:22:53.258Z,99.90
2019-04-06T21:25:25.667Z,99.90
2019-04-06T21:27:54.530Z,99.90
2019-04-06T21:30:26.579Z,99.90
2019-04-06T21:32:59.950Z,99.90
2019-04-06T21:35:31.036Z,99.90
2019-04-06T21:38:00.802Z,99.90
2019-04-06T21:40:29.377Z,99.90
2019-04-06T21:42:59.992Z,99.90
2019-04-06T21:45:30.073Z,99.90
2019-04-06T21:47:59.435Z,99.90
2019-04-06T21:50:33.185Z,99.90
2019-04-06T21:53:04.363Z,99.90
2019-04-06T21:55:35.950Z,99.90
2019-04-06T21:58:05.256Z,99.90
2019-04-06T22:00:55.212Z,99.90
2019-04-06T22:03:23.483Z,99.90
2019-04-06T22:05:53.700Z,99.90
2019-04-06T22:08:24.936Z,99.90
2019-04-06T22:10:54.908Z,99.90
2019-04-06T22:17:09.515Z,99.90
2019-04-06T22:19:38.237Z,99.90
2019-04-06T22:22:06.496Z,99.90
2019-04-06T22:24:35.166Z,99.90
2019-04-06T22:27:03.989Z,99.90
2019-04-06T22:29:35.292Z,99.90
2019-04-06T22:32:04.009Z,99.90
2019-04-06T22:34:38.826Z,99.90
2019-04-06T22:37:09.220Z,99.90
2019-04-06T22:39:40.979Z,99.90
2019-04-06T22:42:09.926Z,99.90
2019-04-06T22:44:39.933Z,99.90
2019-04-06T22:47:09.043Z,99.90
2019-04-06T22:49:37.878Z,99.90
2019-04-06T22:52:07.845Z,99.90
2019-04-06T22:54:41.879Z,99.90
2019-04-06T22:57:10.326Z,99.90
2019-04-06T22:59:39.243Z,99.90
2019-04-06T23:02:10.969Z,99.90
2019-04-06T23:04:51.342Z,99.90
2019-04-06T23:07:22.420Z,99.90
2019-04-06T23:09:50.776Z,99.90
2019-04-06T23:12:19.699Z,99.90
2019-04-06T23:14:47.998Z,99.90
2019-04-06T23:17:16.962Z,99.90
2019-04-06T23:19:45.352Z,99.90
2019-04-06T23:22:15.847Z,99.90
2019-04-06T23:24:44.167Z,99.90
2019-04-06T23:27:12.563Z,99.90
2019-04-06T23:29:41.020Z,99.90
2019-04-06T23:32:09.430Z,99.90
2019-04-06T23:34:37.954Z,99.90
2019-04-06T23:37:06.328Z,99.90
2019-04-06T23:39:34.433Z,99.90
2019-04-06T23:42:22.753Z,99.90
2019-04-06T23:44:51.599Z,99.90
2019-04-06T23:47:19.974Z,99.90
2019-04-06T23:49:47.942Z,99.90
2019-04-06T23:52:19.507Z,99.90
2019-04-06T23:54:48.678Z,99.90
2019-04-06T23:57:17.018Z,99.90
2019-04-06T23:59:45.261Z,99.90
